sensor_id;sensor_type;location;lat;lon;timestamp;P1;durP1;ratioP1;P2;durP2;ratioP2
30613;SDS011;17381;51.690;5.270;2023-05-21T00:01:49;3.70;;;1.65;;
30613;SDS011;17381;51.690;5.270;2023-05-21T00:04:35;6.97;;;2.28;;
30613;SDS011;17381;51.690;5.270;2023-05-21T00:07:27;4.78;;;1.92;;
30613;SDS011;17381;51.690;5.270;2023-05-21T00:10:42;3.40;;;1.70;;
30613;SDS011;17381;51.690;5.270;2023-05-21T00:14:11;4.50;;;1.85;;
30613;SDS011;17381;51.690;5.270;2023-05-21T00:16:49;3.97;;;2.05;;
30613;SDS011;17381;51.690;5.270;2023-05-21T00:19:58;3.78;;;2.22;;
30613;SDS011;17381;51.690;5.270;2023-05-21T00:22:52;4.75;;;2.20;;
30613;SDS011;17381;51.690;5.270;2023-05-21T00:25:47;5.18;;;2.53;;
30613;SDS011;17381;51.690;5.270;2023-05-21T00:28:35;3.78;;;1.90;;
30613;SDS011;17381;51.690;5.270;2023-05-21T00:31:16;4.47;;;2.10;;
30613;SDS011;17381;51.690;5.270;2023-05-21T00:34:06;3.53;;;1.70;;
30613;SDS011;17381;51.690;5.270;2023-05-21T00:37:28;4.85;;;1.80;;
30613;SDS011;17381;51.690;5.270;2023-05-21T00:40:28;3.90;;;1.80;;
30613;SDS011;17381;51.690;5.270;2023-05-21T00:43:45;5.90;;;2.47;;
30613;SDS011;17381;51.690;5.270;2023-05-21T00:46:43;4.18;;;2.15;;
30613;SDS011;17381;51.690;5.270;2023-05-21T00:49:35;4.95;;;2.40;;
30613;SDS011;17381;51.690;5.270;2023-05-21T00:52:12;4.20;;;1.98;;
30613;SDS011;17381;51.690;5.270;2023-05-21T00:55:08;4.05;;;2.35;;
30613;SDS011;17381;51.690;5.270;2023-05-21T00:57:54;3.78;;;2.00;;
30613;SDS011;17381;51.690;5.270;2023-05-21T01:00:26;4.75;;;2.40;;
30613;SDS011;17381;51.690;5.270;2023-05-21T01:03:10;4.25;;;1.77;;
30613;SDS011;17381;51.690;5.270;2023-05-21T01:06:02;3.65;;;2.03;;
30613;SDS011;17381;51.690;5.270;2023-05-21T01:08:50;4.47;;;2.40;;
30613;SDS011;17381;51.690;5.270;2023-05-21T01:11:48;4.03;;;1.80;;
30613;SDS011;17381;51.690;5.270;2023-05-21T01:17:46;5.35;;;2.40;;
30613;SDS011;17381;51.690;5.270;2023-05-21T01:20:39;4.28;;;2.30;;
30613;SDS011;17381;51.690;5.270;2023-05-21T01:23:22;4.20;;;2.33;;
30613;SDS011;17381;51.690;5.270;2023-05-21T01:26:14;5.35;;;2.60;;
30613;SDS011;17381;51.690;5.270;2023-05-21T01:29:21;5.93;;;2.25;;
30613;SDS011;17381;51.690;5.270;2023-05-21T01:32:09;4.82;;;2.47;;
30613;SDS011;17381;51.690;5.270;2023-05-21T01:41:18;5.22;;;2.65;;
30613;SDS011;17381;51.690;5.270;2023-05-21T01:44:24;4.88;;;2.17;;
30613;SDS011;17381;51.690;5.270;2023-05-21T01:47:21;5.13;;;2.50;;
30613;SDS011;17381;51.690;5.270;2023-05-21T01:50:38;4.60;;;2.20;;
30613;SDS011;17381;51.690;5.270;2023-05-21T01:53:26;4.28;;;2.47;;
30613;SDS011;17381;51.690;5.270;2023-05-21T01:55:58;4.40;;;1.90;;
30613;SDS011;17381;51.690;5.270;2023-05-21T01:58:48;3.70;;;2.08;;
30613;SDS011;17381;51.690;5.270;2023-05-21T02:01:31;4.40;;;2.28;;
30613;SDS011;17381;51.690;5.270;2023-05-21T02:04:32;5.00;;;2.28;;
30613;SDS011;17381;51.690;5.270;2023-05-21T02:07:04;3.58;;;2.22;;
30613;SDS011;17381;51.690;5.270;2023-05-21T02:10:11;4.68;;;2.85;;
30613;SDS011;17381;51.690;5.270;2023-05-21T02:13:10;4.82;;;2.50;;
30613;SDS011;17381;51.690;5.270;2023-05-21T02:15:48;4.38;;;2.20;;
30613;SDS011;17381;51.690;5.270;2023-05-21T02:18:51;5.32;;;2.42;;
30613;SDS011;17381;51.690;5.270;2023-05-21T02:21:56;6.05;;;2.90;;
30613;SDS011;17381;51.690;5.270;2023-05-21T02:24:46;4.43;;;2.35;;
30613;SDS011;17381;51.690;5.270;2023-05-21T02:27:35;5.45;;;2.95;;
30613;SDS011;17381;51.690;5.270;2023-05-21T02:30:25;4.53;;;2.28;;
30613;SDS011;17381;51.690;5.270;2023-05-21T02:33:43;6.00;;;2.88;;
30613;SDS011;17381;51.690;5.270;2023-05-21T02:36:16;4.10;;;2.50;;
30613;SDS011;17381;51.690;5.270;2023-05-21T02:39:18;4.38;;;2.50;;
30613;SDS011;17381;51.690;5.270;2023-05-21T02:42:07;5.32;;;2.60;;
30613;SDS011;17381;51.690;5.270;2023-05-21T02:44:44;5.50;;;2.58;;
30613;SDS011;17381;51.690;5.270;2023-05-21T02:47:22;4.35;;;2.47;;
30613;SDS011;17381;51.690;5.270;2023-05-21T02:50:23;4.95;;;2.45;;
30613;SDS011;17381;51.690;5.270;2023-05-21T02:53:15;4.75;;;2.28;;
30613;SDS011;17381;51.690;5.270;2023-05-21T02:56:14;5.72;;;2.88;;
30613;SDS011;17381;51.690;5.270;2023-05-21T02:58:43;5.53;;;2.60;;
30613;SDS011;17381;51.690;5.270;2023-05-21T03:01:18;3.97;;;2.30;;
30613;SDS011;17381;51.690;5.270;2023-05-21T03:04:22;4.35;;;2.03;;
30613;SDS011;17381;51.690;5.270;2023-05-21T03:07:04;3.92;;;2.25;;
30613;SDS011;17381;51.690;5.270;2023-05-21T03:09:35;4.60;;;2.40;;
30613;SDS011;17381;51.690;5.270;2023-05-21T03:12:36;3.40;;;2.08;;
30613;SDS011;17381;51.690;5.270;2023-05-21T03:15:31;5.93;;;2.85;;
30613;SDS011;17381;51.690;5.270;2023-05-21T03:18:26;4.72;;;2.60;;
30613;SDS011;17381;51.690;5.270;2023-05-21T03:21:10;4.28;;;2.47;;
30613;SDS011;17381;51.690;5.270;2023-05-21T03:23:49;4.25;;;2.30;;
30613;SDS011;17381;51.690;5.270;2023-05-21T03:26:41;4.78;;;2.88;;
30613;SDS011;17381;51.690;5.270;2023-05-21T03:29:43;5.10;;;2.85;;
30613;SDS011;17381;51.690;5.270;2023-05-21T03:32:26;4.85;;;2.55;;
30613;SDS011;17381;51.690;5.270;2023-05-21T03:35:07;4.88;;;2.65;;
30613;SDS011;17381;51.690;5.270;2023-05-21T03:38:10;4.88;;;3.20;;
30613;SDS011;17381;51.690;5.270;2023-05-21T03:40:56;4.60;;;2.67;;
30613;SDS011;17381;51.690;5.270;2023-05-21T03:43:34;4.75;;;2.90;;
30613;SDS011;17381;51.690;5.270;2023-05-21T03:46:31;4.82;;;3.10;;
30613;SDS011;17381;51.690;5.270;2023-05-21T03:49:29;4.75;;;2.75;;
30613;SDS011;17381;51.690;5.270;2023-05-21T03:52:07;5.30;;;2.90;;
30613;SDS011;17381;51.690;5.270;2023-05-21T03:54:57;5.85;;;3.33;;
30613;SDS011;17381;51.690;5.270;2023-05-21T03:57:55;7.05;;;3.15;;
30613;SDS011;17381;51.690;5.270;2023-05-21T04:00:51;4.47;;;2.88;;
30613;SDS011;17381;51.690;5.270;2023-05-21T04:03:43;6.40;;;3.10;;
30613;SDS011;17381;51.690;5.270;2023-05-21T04:06:28;4.90;;;3.00;;
30613;SDS011;17381;51.690;5.270;2023-05-21T04:09:06;5.85;;;3.25;;
30613;SDS011;17381;51.690;5.270;2023-05-21T04:11:56;6.60;;;3.38;;
30613;SDS011;17381;51.690;5.270;2023-05-21T04:15:06;6.00;;;3.30;;
30613;SDS011;17381;51.690;5.270;2023-05-21T04:17:59;7.03;;;3.95;;
30613;SDS011;17381;51.690;5.270;2023-05-21T04:21:22;5.53;;;3.25;;
30613;SDS011;17381;51.690;5.270;2023-05-21T04:24:12;6.05;;;3.33;;
30613;SDS011;17381;51.690;5.270;2023-05-21T04:27:13;6.82;;;3.65;;
30613;SDS011;17381;51.690;5.270;2023-05-21T04:30:20;6.28;;;3.50;;
30613;SDS011;17381;51.690;5.270;2023-05-21T04:33:21;7.72;;;3.50;;
30613;SDS011;17381;51.690;5.270;2023-05-21T04:35:55;5.53;;;3.42;;
30613;SDS011;17381;51.690;5.270;2023-05-21T04:39:04;6.55;;;3.78;;
30613;SDS011;17381;51.690;5.270;2023-05-21T04:41:43;8.02;;;3.70;;
30613;SDS011;17381;51.690;5.270;2023-05-21T04:45:00;5.47;;;3.45;;
30613;SDS011;17381;51.690;5.270;2023-05-21T04:47:54;6.88;;;3.40;;
30613;SDS011;17381;51.690;5.270;2023-05-21T04:50:52;6.75;;;3.75;;
30613;SDS011;17381;51.690;5.270;2023-05-21T04:53:40;5.53;;;2.92;;
30613;SDS011;17381;51.690;5.270;2023-05-21T04:56:45;6.70;;;3.67;;
30613;SDS011;17381;51.690;5.270;2023-05-21T04:59:36;6.82;;;3.10;;
30613;SDS011;17381;51.690;5.270;2023-05-21T05:02:21;6.32;;;3.60;;
30613;SDS011;17381;51.690;5.270;2023-05-21T05:05:38;5.85;;;3.33;;
30613;SDS011;17381;51.690;5.270;2023-05-21T05:08:25;7.68;;;4.15;;
30613;SDS011;17381;51.690;5.270;2023-05-21T05:11:13;5.65;;;3.67;;
30613;SDS011;17381;51.690;5.270;2023-05-21T05:14:10;4.60;;;2.97;;
30613;SDS011;17381;51.690;5.270;2023-05-21T05:17:03;5.93;;;3.90;;
30613;SDS011;17381;51.690;5.270;2023-05-21T05:19:53;7.28;;;3.72;;
30613;SDS011;17381;51.690;5.270;2023-05-21T05:22:26;6.45;;;3.45;;
30613;SDS011;17381;51.690;5.270;2023-05-21T05:25:04;5.50;;;3.03;;
30613;SDS011;17381;51.690;5.270;2023-05-21T05:27:54;6.03;;;3.45;;
30613;SDS011;17381;51.690;5.270;2023-05-21T05:30:26;6.95;;;3.88;;
30613;SDS011;17381;51.690;5.270;2023-05-21T05:33:32;5.05;;;3.22;;
30613;SDS011;17381;51.690;5.270;2023-05-21T05:36:13;7.50;;;3.92;;
30613;SDS011;17381;51.690;5.270;2023-05-21T05:39:12;6.35;;;3.90;;
30613;SDS011;17381;51.690;5.270;2023-05-21T05:42:05;5.70;;;3.47;;
30613;SDS011;17381;51.690;5.270;2023-05-21T05:47:19;7.28;;;3.40;;
30613;SDS011;17381;51.690;5.270;2023-05-21T05:49:57;4.90;;;3.28;;
30613;SDS011;17381;51.690;5.270;2023-05-21T05:52:51;5.75;;;3.53;;
30613;SDS011;17381;51.690;5.270;2023-05-21T05:55:55;7.80;;;4.22;;
30613;SDS011;17381;51.690;5.270;2023-05-21T05:58:59;6.35;;;3.47;;
30613;SDS011;17381;51.690;5.270;2023-05-21T06:01:35;5.72;;;3.30;;
30613;SDS011;17381;51.690;5.270;2023-05-21T06:04:21;7.22;;;3.88;;
30613;SDS011;17381;51.690;5.270;2023-05-21T06:07:20;6.57;;;4.00;;
30613;SDS011;17381;51.690;5.270;2023-05-21T06:10:03;5.57;;;3.58;;
30613;SDS011;17381;51.690;5.270;2023-05-21T06:12:51;6.60;;;3.92;;
30613;SDS011;17381;51.690;5.270;2023-05-21T06:15:30;6.55;;;4.40;;
30613;SDS011;17381;51.690;5.270;2023-05-21T06:18:20;6.68;;;4.70;;
30613;SDS011;17381;51.690;5.270;2023-05-21T06:20:52;5.82;;;3.78;;
30613;SDS011;17381;51.690;5.270;2023-05-21T06:23:27;7.60;;;4.32;;
30613;SDS011;17381;51.690;5.270;2023-05-21T06:26:42;9.32;;;4.70;;
30613;SDS011;17381;51.690;5.270;2023-05-21T06:29:27;5.88;;;3.72;;
30613;SDS011;17381;51.690;5.270;2023-05-21T06:32:33;8.27;;;4.00;;
30613;SDS011;17381;51.690;5.270;2023-05-21T06:35:30;7.80;;;4.32;;
30613;SDS011;17381;51.690;5.270;2023-05-21T06:38:47;7.15;;;4.43;;
30613;SDS011;17381;51.690;5.270;2023-05-21T06:41:41;6.07;;;4.00;;
30613;SDS011;17381;51.690;5.270;2023-05-21T06:44:58;6.90;;;4.03;;
30613;SDS011;17381;51.690;5.270;2023-05-21T06:48:02;10.13;;;4.65;;
30613;SDS011;17381;51.690;5.270;2023-05-21T06:51:11;7.55;;;4.30;;
30613;SDS011;17381;51.690;5.270;2023-05-21T06:53:45;8.13;;;4.35;;
30613;SDS011;17381;51.690;5.270;2023-05-21T06:56:41;7.43;;;4.05;;
30613;SDS011;17381;51.690;5.270;2023-05-21T06:59:47;6.97;;;4.15;;
30613;SDS011;17381;51.690;5.270;2023-05-21T07:02:46;6.53;;;4.50;;
30613;SDS011;17381;51.690;5.270;2023-05-21T07:05:35;7.50;;;4.90;;
30613;SDS011;17381;51.690;5.270;2023-05-21T07:08:36;7.82;;;5.18;;
30613;SDS011;17381;51.690;5.270;2023-05-21T07:11:25;9.40;;;4.60;;
30613;SDS011;17381;51.690;5.270;2023-05-21T07:14:15;8.60;;;4.93;;
30613;SDS011;17381;51.690;5.270;2023-05-21T07:16:50;7.78;;;4.53;;
30613;SDS011;17381;51.690;5.270;2023-05-21T07:19:38;9.02;;;4.55;;
30613;SDS011;17381;51.690;5.270;2023-05-21T07:22:43;7.03;;;4.43;;
30613;SDS011;17381;51.690;5.270;2023-05-21T07:26:11;8.98;;;4.78;;
30613;SDS011;17381;51.690;5.270;2023-05-21T07:29:07;8.63;;;4.55;;
30613;SDS011;17381;51.690;5.270;2023-05-21T07:32:14;8.13;;;4.47;;
30613;SDS011;17381;51.690;5.270;2023-05-21T07:35:04;8.23;;;4.90;;
30613;SDS011;17381;51.690;5.270;2023-05-21T07:41:11;8.45;;;4.60;;
30613;SDS011;17381;51.690;5.270;2023-05-21T07:47:02;7.22;;;5.10;;
30613;SDS011;17381;51.690;5.270;2023-05-21T07:49:39;6.10;;;4.10;;
30613;SDS011;17381;51.690;5.270;2023-05-21T07:52:29;7.97;;;4.13;;
30613;SDS011;17381;51.690;5.270;2023-05-21T07:55:09;7.53;;;5.15;;
30613;SDS011;17381;51.690;5.270;2023-05-21T07:57:58;7.38;;;4.55;;
30613;SDS011;17381;51.690;5.270;2023-05-21T08:01:03;6.32;;;4.07;;
30613;SDS011;17381;51.690;5.270;2023-05-21T08:03:56;7.10;;;4.28;;
30613;SDS011;17381;51.690;5.270;2023-05-21T08:06:51;6.45;;;4.25;;
30613;SDS011;17381;51.690;5.270;2023-05-21T08:09:54;6.90;;;4.43;;
30613;SDS011;17381;51.690;5.270;2023-05-21T08:12:52;8.48;;;4.95;;
30613;SDS011;17381;51.690;5.270;2023-05-21T08:15:47;6.65;;;4.63;;
30613;SDS011;17381;51.690;5.270;2023-05-21T08:18:37;8.25;;;4.55;;
30613;SDS011;17381;51.690;5.270;2023-05-21T08:21:30;8.05;;;5.07;;
30613;SDS011;17381;51.690;5.270;2023-05-21T08:24:20;8.45;;;4.80;;
30613;SDS011;17381;51.690;5.270;2023-05-21T08:27:26;7.60;;;5.15;;
30613;SDS011;17381;51.690;5.270;2023-05-21T08:30:19;8.25;;;4.95;;
30613;SDS011;17381;51.690;5.270;2023-05-21T08:33:20;7.60;;;4.95;;
30613;SDS011;17381;51.690;5.270;2023-05-21T08:36:14;11.35;;;5.43;;
30613;SDS011;17381;51.690;5.270;2023-05-21T08:39:27;8.35;;;4.45;;
30613;SDS011;17381;51.690;5.270;2023-05-21T08:42:09;10.82;;;5.22;;
30613;SDS011;17381;51.690;5.270;2023-05-21T08:44:54;6.93;;;4.47;;
30613;SDS011;17381;51.690;5.270;2023-05-21T08:48:11;9.15;;;4.80;;
30613;SDS011;17381;51.690;5.270;2023-05-21T08:51:01;6.60;;;4.45;;
30613;SDS011;17381;51.690;5.270;2023-05-21T08:53:56;10.30;;;5.50;;
30613;SDS011;17381;51.690;5.270;2023-05-21T08:56:49;6.75;;;4.85;;
30613;SDS011;17381;51.690;5.270;2023-05-21T08:59:38;7.57;;;4.45;;
30613;SDS011;17381;51.690;5.270;2023-05-21T09:02:27;10.23;;;5.28;;
30613;SDS011;17381;51.690;5.270;2023-05-21T09:05:27;8.15;;;4.90;;
30613;SDS011;17381;51.690;5.270;2023-05-21T09:08:54;8.63;;;5.45;;
30613;SDS011;17381;51.690;5.270;2023-05-21T09:11:52;7.65;;;5.32;;
30613;SDS011;17381;51.690;5.270;2023-05-21T09:14:53;9.30;;;5.53;;
30613;SDS011;17381;51.690;5.270;2023-05-21T09:18:09;7.43;;;5.10;;
30613;SDS011;17381;51.690;5.270;2023-05-21T09:21:25;9.10;;;6.03;;
30613;SDS011;17381;51.690;5.270;2023-05-21T09:24:14;9.60;;;5.38;;
30613;SDS011;17381;51.690;5.270;2023-05-21T09:27:32;8.18;;;5.82;;
30613;SDS011;17381;51.690;5.270;2023-05-21T09:30:29;7.97;;;4.88;;
30613;SDS011;17381;51.690;5.270;2023-05-21T09:33:01;7.45;;;4.65;;
30613;SDS011;17381;51.690;5.270;2023-05-21T09:35:34;8.25;;;5.03;;
30613;SDS011;17381;51.690;5.270;2023-05-21T09:38:43;9.73;;;5.90;;
30613;SDS011;17381;51.690;5.270;2023-05-21T09:41:21;8.52;;;5.63;;
30613;SDS011;17381;51.690;5.270;2023-05-21T09:44:23;9.38;;;5.75;;
30613;SDS011;17381;51.690;5.270;2023-05-21T09:47:22;8.50;;;5.47;;
30613;SDS011;17381;51.690;5.270;2023-05-21T09:50:30;7.57;;;5.00;;
30613;SDS011;17381;51.690;5.270;2023-05-21T09:53:39;9.70;;;5.60;;
30613;SDS011;17381;51.690;5.270;2023-05-21T09:56:42;8.80;;;5.87;;
30613;SDS011;17381;51.690;5.270;2023-05-21T10:00:01;8.95;;;5.20;;
30613;SDS011;17381;51.690;5.270;2023-05-21T10:06:32;9.73;;;4.80;;
30613;SDS011;17381;51.690;5.270;2023-05-21T10:09:56;9.65;;;5.30;;
30613;SDS011;17381;51.690;5.270;2023-05-21T10:13:10;8.95;;;5.35;;
30613;SDS011;17381;51.690;5.270;2023-05-21T10:15:52;9.80;;;6.07;;
30613;SDS011;17381;51.690;5.270;2023-05-21T10:22:09;7.78;;;5.15;;
30613;SDS011;17381;51.690;5.270;2023-05-21T10:25:05;7.70;;;5.10;;
30613;SDS011;17381;51.690;5.270;2023-05-21T10:28:08;8.30;;;5.30;;
30613;SDS011;17381;51.690;5.270;2023-05-21T10:31:23;10.55;;;5.78;;
30613;SDS011;17381;51.690;5.270;2023-05-21T10:37:58;9.73;;;5.90;;
30613;SDS011;17381;51.690;5.270;2023-05-21T10:58:50;7.60;;;5.57;;
30613;SDS011;17381;51.690;5.270;2023-05-21T11:02:15;10.95;;;6.03;;
30613;SDS011;17381;51.690;5.270;2023-05-21T11:05:11;8.88;;;5.18;;
30613;SDS011;17381;51.690;5.270;2023-05-21T11:08:30;9.30;;;5.30;;
30613;SDS011;17381;51.690;5.270;2023-05-21T11:11:43;8.05;;;5.22;;
30613;SDS011;17381;51.690;5.270;2023-05-21T11:15:05;6.88;;;4.72;;
30613;SDS011;17381;51.690;5.270;2023-05-21T11:17:40;11.70;;;6.32;;
30613;SDS011;17381;51.690;5.270;2023-05-21T11:20:51;10.05;;;6.53;;
30613;SDS011;17381;51.690;5.270;2023-05-21T11:24:07;8.48;;;5.30;;
30613;SDS011;17381;51.690;5.270;2023-05-21T11:27:06;8.00;;;4.93;;
30613;SDS011;17381;51.690;5.270;2023-05-21T11:30:01;8.35;;;5.50;;
30613;SDS011;17381;51.690;5.270;2023-05-21T11:36:41;9.38;;;5.68;;
30613;SDS011;17381;51.690;5.270;2023-05-21T11:40:01;8.05;;;5.47;;
30613;SDS011;17381;51.690;5.270;2023-05-21T11:43:24;8.15;;;5.05;;
30613;SDS011;17381;51.690;5.270;2023-05-21T11:46:53;9.20;;;5.55;;
30613;SDS011;17381;51.690;5.270;2023-05-21T11:49:55;9.27;;;6.28;;
30613;SDS011;17381;51.690;5.270;2023-05-21T11:52:35;10.63;;;6.80;;
30613;SDS011;17381;51.690;5.270;2023-05-21T11:55:41;8.65;;;5.63;;
30613;SDS011;17381;51.690;5.270;2023-05-21T11:58:33;9.82;;;5.60;;
30613;SDS011;17381;51.690;5.270;2023-05-21T12:01:28;7.38;;;5.07;;
30613;SDS011;17381;51.690;5.270;2023-05-21T12:04:43;12.00;;;6.95;;
30613;SDS011;17381;51.690;5.270;2023-05-21T12:07:52;8.95;;;5.55;;
30613;SDS011;17381;51.690;5.270;2023-05-21T12:10:45;10.00;;;5.60;;
30613;SDS011;17381;51.690;5.270;2023-05-21T12:20:43;9.63;;;6.65;;
30613;SDS011;17381;51.690;5.270;2023-05-21T12:23:25;11.07;;;6.30;;
30613;SDS011;17381;51.690;5.270;2023-05-21T12:26:19;7.85;;;5.38;;
30613;SDS011;17381;51.690;5.270;2023-05-21T12:29:25;8.18;;;4.72;;
30613;SDS011;17381;51.690;5.270;2023-05-21T12:32:49;9.13;;;5.63;;
30613;SDS011;17381;51.690;5.270;2023-05-21T12:35:32;9.95;;;6.10;;
30613;SDS011;17381;51.690;5.270;2023-05-21T12:38:41;11.40;;;6.60;;
30613;SDS011;17381;51.690;5.270;2023-05-21T12:41:31;8.23;;;5.35;;
30613;SDS011;17381;51.690;5.270;2023-05-21T12:44:24;8.75;;;6.40;;
30613;SDS011;17381;51.690;5.270;2023-05-21T12:47:13;9.35;;;5.80;;
30613;SDS011;17381;51.690;5.270;2023-05-21T12:53:21;9.45;;;5.88;;
30613;SDS011;17381;51.690;5.270;2023-05-21T12:56:05;8.80;;;6.28;;
30613;SDS011;17381;51.690;5.270;2023-05-21T12:59:02;8.20;;;5.72;;
30613;SDS011;17381;51.690;5.270;2023-05-21T13:02:14;9.82;;;5.65;;
30613;SDS011;17381;51.690;5.270;2023-05-21T13:05:31;9.73;;;6.10;;
30613;SDS011;17381;51.690;5.270;2023-05-21T13:08:45;10.45;;;6.30;;
30613;SDS011;17381;51.690;5.270;2023-05-21T13:11:32;7.88;;;5.25;;
30613;SDS011;17381;51.690;5.270;2023-05-21T13:14:32;10.90;;;6.25;;
30613;SDS011;17381;51.690;5.270;2023-05-21T13:17:22;7.40;;;5.38;;
30613;SDS011;17381;51.690;5.270;2023-05-21T13:20:39;8.55;;;5.78;;
30613;SDS011;17381;51.690;5.270;2023-05-21T13:23:36;7.15;;;4.85;;
30613;SDS011;17381;51.690;5.270;2023-05-21T13:26:44;8.63;;;5.65;;
30613;SDS011;17381;51.690;5.270;2023-05-21T13:29:38;6.78;;;5.15;;
30613;SDS011;17381;51.690;5.270;2023-05-21T13:32:53;9.68;;;4.72;;
30613;SDS011;17381;51.690;5.270;2023-05-21T13:39:09;9.65;;;4.95;;
30613;SDS011;17381;51.690;5.270;2023-05-21T13:42:04;7.65;;;5.80;;
30613;SDS011;17381;51.690;5.270;2023-05-21T13:45:17;8.85;;;5.85;;
30613;SDS011;17381;51.690;5.270;2023-05-21T13:48:30;9.25;;;5.53;;
30613;SDS011;17381;51.690;5.270;2023-05-21T13:51:43;7.97;;;5.15;;
30613;SDS011;17381;51.690;5.270;2023-05-21T13:54:41;8.13;;;5.30;;
30613;SDS011;17381;51.690;5.270;2023-05-21T13:57:42;8.73;;;5.32;;
30613;SDS011;17381;51.690;5.270;2023-05-21T14:00:37;7.90;;;5.03;;
30613;SDS011;17381;51.690;5.270;2023-05-21T14:03:25;9.65;;;5.38;;
30613;SDS011;17381;51.690;5.270;2023-05-21T14:06:28;9.25;;;5.60;;
30613;SDS011;17381;51.690;5.270;2023-05-21T14:09:10;7.60;;;4.93;;
30613;SDS011;17381;51.690;5.270;2023-05-21T14:11:48;7.05;;;5.10;;
30613;SDS011;17381;51.690;5.270;2023-05-21T14:15:11;9.15;;;5.18;;
30613;SDS011;17381;51.690;5.270;2023-05-21T14:18:10;7.85;;;5.13;;
30613;SDS011;17381;51.690;5.270;2023-05-21T14:21:26;8.93;;;5.80;;
30613;SDS011;17381;51.690;5.270;2023-05-21T14:24:27;8.48;;;5.28;;
30613;SDS011;17381;51.690;5.270;2023-05-21T14:27:03;7.10;;;4.70;;
30613;SDS011;17381;51.690;5.270;2023-05-21T14:30:16;7.97;;;5.72;;
30613;SDS011;17381;51.690;5.270;2023-05-21T14:33:08;12.43;;;5.53;;
30613;SDS011;17381;51.690;5.270;2023-05-21T14:35:49;7.60;;;5.07;;
30613;SDS011;17381;51.690;5.270;2023-05-21T14:39:05;7.03;;;5.25;;
30613;SDS011;17381;51.690;5.270;2023-05-21T14:41:47;9.30;;;5.35;;
30613;SDS011;17381;51.690;5.270;2023-05-21T14:44:47;7.65;;;5.15;;
30613;SDS011;17381;51.690;5.270;2023-05-21T14:47:41;7.32;;;4.40;;
30613;SDS011;17381;51.690;5.270;2023-05-21T14:50:39;7.95;;;4.82;;
30613;SDS011;17381;51.690;5.270;2023-05-21T14:53:19;7.60;;;5.05;;
30613;SDS011;17381;51.690;5.270;2023-05-21T14:56:19;11.43;;;5.90;;
30613;SDS011;17381;51.690;5.270;2023-05-21T14:58:58;10.70;;;5.78;;
30613;SDS011;17381;51.690;5.270;2023-05-21T15:01:51;6.22;;;4.30;;
30613;SDS011;17381;51.690;5.270;2023-05-21T15:04:53;9.05;;;5.95;;
30613;SDS011;17381;51.690;5.270;2023-05-21T15:07:45;9.75;;;5.60;;
30613;SDS011;17381;51.690;5.270;2023-05-21T15:13:23;6.78;;;4.35;;
30613;SDS011;17381;51.690;5.270;2023-05-21T15:16:32;11.55;;;4.55;;
30613;SDS011;17381;51.690;5.270;2023-05-21T15:19:21;8.82;;;4.72;;
30613;SDS011;17381;51.690;5.270;2023-05-21T15:22:17;6.13;;;4.18;;
30613;SDS011;17381;51.690;5.270;2023-05-21T15:25:10;9.02;;;4.78;;
30613;SDS011;17381;51.690;5.270;2023-05-21T15:28:10;7.03;;;4.88;;
30613;SDS011;17381;51.690;5.270;2023-05-21T15:31:06;7.80;;;4.70;;
30613;SDS011;17381;51.690;5.270;2023-05-21T15:33:42;7.78;;;5.20;;
30613;SDS011;17381;51.690;5.270;2023-05-21T15:36:52;9.68;;;5.07;;
30613;SDS011;17381;51.690;5.270;2023-05-21T15:39:42;8.65;;;4.93;;
30613;SDS011;17381;51.690;5.270;2023-05-21T15:42:56;6.75;;;4.45;;
30613;SDS011;17381;51.690;5.270;2023-05-21T15:45:56;6.85;;;4.32;;
30613;SDS011;17381;51.690;5.270;2023-05-21T15:48:53;6.70;;;4.47;;
30613;SDS011;17381;51.690;5.270;2023-05-21T15:54:36;8.82;;;5.28;;
30613;SDS011;17381;51.690;5.270;2023-05-21T15:57:30;6.93;;;4.20;;
30613;SDS011;17381;51.690;5.270;2023-05-21T16:00:22;6.82;;;3.70;;
30613;SDS011;17381;51.690;5.270;2023-05-21T16:03:15;7.30;;;4.03;;
30613;SDS011;17381;51.690;5.270;2023-05-21T16:06:00;7.55;;;3.97;;
30613;SDS011;17381;51.690;5.270;2023-05-21T16:08:54;6.57;;;3.67;;
30613;SDS011;17381;51.690;5.270;2023-05-21T16:11:25;6.22;;;3.60;;
30613;SDS011;17381;51.690;5.270;2023-05-21T16:14:25;7.20;;;3.88;;
30613;SDS011;17381;51.690;5.270;2023-05-21T16:17:26;7.25;;;3.47;;
30613;SDS011;17381;51.690;5.270;2023-05-21T16:22:58;7.25;;;4.18;;
30613;SDS011;17381;51.690;5.270;2023-05-21T16:25:37;5.93;;;3.22;;
30613;SDS011;17381;51.690;5.270;2023-05-21T16:28:31;8.73;;;4.35;;
30613;SDS011;17381;51.690;5.270;2023-05-21T16:31:16;7.00;;;3.88;;
30613;SDS011;17381;51.690;5.270;2023-05-21T16:34:11;6.75;;;4.00;;
30613;SDS011;17381;51.690;5.270;2023-05-21T16:37:37;7.15;;;3.30;;
30613;SDS011;17381;51.690;5.270;2023-05-21T16:40:25;7.55;;;3.50;;
30613;SDS011;17381;51.690;5.270;2023-05-21T16:46:03;6.95;;;3.50;;
30613;SDS011;17381;51.690;5.270;2023-05-21T16:48:51;9.27;;;3.30;;
30613;SDS011;17381;51.690;5.270;2023-05-21T16:51:39;6.00;;;3.13;;
30613;SDS011;17381;51.690;5.270;2023-05-21T16:57:28;5.05;;;3.03;;
30613;SDS011;17381;51.690;5.270;2023-05-21T17:03:10;6.57;;;3.70;;
30613;SDS011;17381;51.690;5.270;2023-05-21T17:06:09;5.35;;;3.15;;
30613;SDS011;17381;51.690;5.270;2023-05-21T17:08:47;7.07;;;3.80;;
30613;SDS011;17381;51.690;5.270;2023-05-21T17:11:50;6.35;;;3.65;;
30613;SDS011;17381;51.690;5.270;2023-05-21T17:14:53;5.57;;;3.10;;
30613;SDS011;17381;51.690;5.270;2023-05-21T17:17:45;8.15;;;4.20;;
30613;SDS011;17381;51.690;5.270;2023-05-21T17:20:43;7.50;;;3.80;;
30613;SDS011;17381;51.690;5.270;2023-05-21T17:23:33;6.10;;;3.25;;
30613;SDS011;17381;51.690;5.270;2023-05-21T17:26:53;6.22;;;3.58;;
30613;SDS011;17381;51.690;5.270;2023-05-21T17:29:44;6.03;;;3.22;;
30613;SDS011;17381;51.690;5.270;2023-05-21T17:32:27;5.72;;;3.50;;
30613;SDS011;17381;51.690;5.270;2023-05-21T17:35:38;6.10;;;3.22;;
30613;SDS011;17381;51.690;5.270;2023-05-21T17:38:29;5.80;;;3.45;;
30613;SDS011;17381;51.690;5.270;2023-05-21T17:41:26;10.93;;;4.68;;
30613;SDS011;17381;51.690;5.270;2023-05-21T17:43:57;7.50;;;3.92;;
30613;SDS011;17381;51.690;5.270;2023-05-21T17:47:19;10.38;;;4.57;;
30613;SDS011;17381;51.690;5.270;2023-05-21T17:50:10;8.25;;;3.92;;
30613;SDS011;17381;51.690;5.270;2023-05-21T17:52:54;6.47;;;3.67;;
30613;SDS011;17381;51.690;5.270;2023-05-21T17:58:57;7.03;;;3.35;;
30613;SDS011;17381;51.690;5.270;2023-05-21T18:05:18;6.65;;;3.70;;
30613;SDS011;17381;51.690;5.270;2023-05-21T18:08:12;6.60;;;3.60;;
30613;SDS011;17381;51.690;5.270;2023-05-21T18:11:27;6.10;;;3.38;;
30613;SDS011;17381;51.690;5.270;2023-05-21T18:14:19;7.03;;;4.10;;
30613;SDS011;17381;51.690;5.270;2023-05-21T18:20:13;7.25;;;3.63;;
30613;SDS011;17381;51.690;5.270;2023-05-21T18:23:11;7.03;;;3.78;;
30613;SDS011;17381;51.690;5.270;2023-05-21T18:29:27;6.72;;;3.65;;
30613;SDS011;17381;51.690;5.270;2023-05-21T18:32:22;6.80;;;3.50;;
30613;SDS011;17381;51.690;5.270;2023-05-21T18:35:26;7.10;;;4.18;;
30613;SDS011;17381;51.690;5.270;2023-05-21T18:38:21;6.18;;;3.08;;
30613;SDS011;17381;51.690;5.270;2023-05-21T18:41:25;7.47;;;2.78;;
30613;SDS011;17381;51.690;5.270;2023-05-21T18:44:54;6.70;;;2.72;;
30613;SDS011;17381;51.690;5.270;2023-05-21T18:47:50;5.60;;;2.97;;
30613;SDS011;17381;51.690;5.270;2023-05-21T18:50:47;5.25;;;2.53;;
30613;SDS011;17381;51.690;5.270;2023-05-21T18:54:09;5.53;;;2.97;;
30613;SDS011;17381;51.690;5.270;2023-05-21T18:59:55;5.57;;;2.85;;
30613;SDS011;17381;51.690;5.270;2023-05-21T19:03:07;4.57;;;2.53;;
30613;SDS011;17381;51.690;5.270;2023-05-21T19:05:53;4.82;;;2.50;;
30613;SDS011;17381;51.690;5.270;2023-05-21T19:09:08;4.68;;;2.65;;
30613;SDS011;17381;51.690;5.270;2023-05-21T19:11:45;5.05;;;2.53;;
30613;SDS011;17381;51.690;5.270;2023-05-21T19:14:38;6.18;;;3.17;;
30613;SDS011;17381;51.690;5.270;2023-05-21T19:20:45;8.10;;;3.00;;